Time;durP1;ratioP1;P1;durP2;ratioP2;P2;SDS_P1;SDS_P2;PMS_P1;PMS_P2;Temp;Humidity;BMP_temperature;BMP_pressure;BME280_temperature;BME280_humidity;BME280_pressure;Samples;Min_cycle;Max_cycle;Signal;HPM_P1;HPM_P2
2023/06/21 00:02:22;;;;;;;;;;;;;;;25.99;45.45;100858.45;103643;1285;62114;-82
2023/06/21 00:04:48;;;;;;;;;;;;;;;26.00;45.41;100857.30;103717;1284;62645;-82
2023/06/21 00:07:13;;;;;;;;;;;;;;;26.00;45.51;100851.21;103590;1285;62175;-82
2023/06/21 00:09:39;;;;;;;;;;;;;;;26.00;45.44;100850.70;103586;1285;63377;-82
2023/06/21 00:12:06;;;;;;;;;;;;;;;26.00;45.32;100848.33;103767;1285;62114;-82
2023/06/21 00:14:32;;;;;;;;;;;;;;;25.99;45.46;100851.09;103610;1286;62131;-81
2023/06/21 00:16:58;;;;;;;;;;;;;;;25.99;45.49;100849.45;103684;1285;62200;-82
2023/06/21 00:19:24;;;;;;;;;;;;;;;25.99;45.52;100846.02;103752;1285;64527;-82
2023/06/21 00:21:51;;;;;;;;;;;;;;;25.99;45.48;100847.14;103756;1290;62124;-82
2023/06/21 00:24:16;;;;;;;;;;;;;;;25.99;45.42;100848.79;103666;1285;62140;-82
2023/06/21 00:26:42;;;;;;;;;;;;;;;25.99;45.46;100849.66;103737;1285;62649;-81
2023/06/21 00:29:08;;;;;;;;;;;;;;;25.99;45.43;100848.77;103583;1285;63311;-81
2023/06/21 00:31:33;;;;;;;;;;;;;;;25.99;45.52;100850.89;103687;1288;62261;-82
2023/06/21 00:33:59;;;;;;;;;;;;;;;25.99;45.46;100851.12;103633;1285;67828;-82
2023/06/21 00:36:24;;;;;;;;;;;;;;;25.99;45.55;100853.28;103705;1285;62121;-82
2023/06/21 00:38:49;;;;;;;;;;;;;;;25.99;45.62;100854.56;103563;1285;63267;-82
2023/06/21 00:41:15;;;;;;;;;;;;;;;25.98;45.55;100855.84;103751;1285;63236;-82
2023/06/21 00:43:40;;;;;;;;;;;;;;;25.99;45.42;100856.89;103783;1285;62226;-82
2023/06/21 00:46:07;;;;;;;;;;;;;;;25.99;45.68;100855.07;103600;1285;62186;-82
2023/06/21 00:48:32;;;;;;;;;;;;;;;25.99;45.67;100852.19;103580;1288;63420;-82
2023/06/21 00:50:58;;;;;;;;;;;;;;;25.99;45.43;100851.30;103714;1285;62827;-81
2023/06/21 00:53:27;;;;;;;;;;;;;;;25.98;45.69;100846.64;103588;1292;62149;-82
2023/06/21 00:55:53;;;;;;;;;;;;;;;25.99;45.72;100846.79;103146;1291;66774;-82
2023/06/21 00:58:21;;;;;;;;;;;;;;;25.98;45.67;100847.39;103150;1291;63217;-82
2023/06/21 01:00:50;;;;;;;;;;;;;;;25.98;45.77;100845.60;103145;1291;62216;-82
2023/06/21 01:03:19;;;;;;;;;;;;;;;25.98;45.55;100848.13;103132;1290;63297;-82
2023/06/21 01:05:47;;;;;;;;;;;;;;;25.97;45.57;100845.64;103135;1296;66893;-82
2023/06/21 01:08:18;;;;;;;;;;;;;;;25.98;45.71;100851.23;103166;1291;62346;-82
2023/06/21 01:11:04;;;;;;;;;;;;;;;25.98;45.73;100850.36;103113;1291;63379;-82
2023/06/21 01:13:40;;;;;;;;;;;;;;;25.98;45.73;100850.70;102856;1296;63855;-82
2023/06/21 01:16:15;;;;;;;;;;;;;;;25.98;45.81;100849.44;103155;1293;66407;-82
2023/06/21 01:18:45;;;;;;;;;;;;;;;25.98;45.71;100849.76;103192;1290;62351;-82
2023/06/21 01:21:10;;;;;;;;;;;;;;;25.98;45.72;100848.88;103157;1290;62369;-82
2023/06/21 01:23:42;;;;;;;;;;;;;;;25.98;45.65;100846.16;103165;1291;62087;-82
2023/06/21 01:26:10;;;;;;;;;;;;;;;25.98;45.57;100843.50;103145;1291;67600;-82
2023/06/21 01:28:41;;;;;;;;;;;;;;;25.97;45.51;100845.30;103627;1285;62183;-82
2023/06/21 01:31:07;;;;;;;;;;;;;;;25.98;45.62;100847.98;103728;1285;62104;-82
2023/06/21 01:33:32;;;;;;;;;;;;;;;25.97;45.72;100850.71;103757;1285;62118;-82
2023/06/21 01:36:03;;;;;;;;;;;;;;;25.97;45.69;100850.77;103736;1286;62265;-82
2023/06/21 01:38:29;;;;;;;;;;;;;;;25.97;45.75;100853.23;103577;1292;62201;-82
2023/06/21 01:40:54;;;;;;;;;;;;;;;25.97;45.79;100855.24;103627;1290;62193;-82
2023/06/21 01:43:20;;;;;;;;;;;;;;;25.97;45.66;100853.25;103613;1290;62248;-82
2023/06/21 01:45:46;;;;;;;;;;;;;;;25.97;45.87;100855.24;103532;1286;62115;-82
2023/06/21 01:48:11;;;;;;;;;;;;;;;25.97;45.96;100859.61;103632;1285;63330;-82
2023/06/21 01:50:38;;;;;;;;;;;;;;;25.97;45.87;100856.56;103610;1290;62206;-82
2023/06/21 01:53:04;;;;;;;;;;;;;;;25.97;45.64;100857.64;103766;1284;63317;-82
2023/06/21 01:55:30;;;;;;;;;;;;;;;25.97;45.74;100866.13;103529;1285;62190;-82
2023/06/21 01:57:56;;;;;;;;;;;;;;;25.97;45.83;100869.20;103677;1285;62174;-82
2023/06/21 02:00:22;;;;;;;;;;;;;;;25.96;45.94;100865.78;103628;1285;62108;-82
2023/06/21 02:02:52;;;;;;;;;;;;;;;25.96;45.81;100871.20;103600;1285;62198;-82
2023/06/21 02:05:18;;;;;;;;;;;;;;;25.96;46.01;100871.40;103659;1286;64825;-82
2023/06/21 02:07:44;;;;;;;;;;;;;;;25.96;45.85;100869.80;103667;1289;63452;-82
2023/06/21 02:10:11;;;;;;;;;;;;;;;25.96;45.85;100874.13;103606;1285;62310;-82
2023/06/21 02:12:36;;;;;;;;;;;;;;;25.96;45.89;100874.50;103801;1285;63171;-82
2023/06/21 02:15:03;;;;;;;;;;;;;;;25.96;45.86;100877.91;103696;1285;62118;-82
2023/06/21 02:17:29;;;;;;;;;;;;;;;25.96;45.78;100873.60;103769;1284;62790;-82
2023/06/21 02:19:55;;;;;;;;;;;;;;;25.96;45.98;100875.58;103599;1285;62095;-82
2023/06/21 02:22:21;;;;;;;;;;;;;;;25.96;45.87;100874.33;103629;1285;62201;-82
2023/06/21 02:24:46;;;;;;;;;;;;;;;25.96;45.84;100874.67;103641;1285;62846;-82
2023/06/21 02:27:12;;;;;;;;;;;;;;;25.96;45.79;100873.59;103723;1285;63617;-82
2023/06/21 02:29:37;;;;;;;;;;;;;;;25.95;45.75;100878.67;103685;1289;62634;-82
2023/06/21 02:32:04;;;;;;;;;;;;;;;25.95;46.05;100876.35;103653;1286;62185;-82
2023/06/21 02:34:30;;;;;;;;;;;;;;;25.95;45.98;100877.23;103586;1285;63293;-81
2023/06/21 02:36:55;;;;;;;;;;;;;;;25.95;45.96;100875.64;103602;1285;62196;-82
2023/06/21 02:39:21;;;;;;;;;;;;;;;25.94;45.79;100879.27;103736;1285;62279;-82
2023/06/21 02:41:47;;;;;;;;;;;;;;;25.94;45.80;100882.52;103677;1284;67357;-82
2023/06/21 02:44:13;;;;;;;;;;;;;;;25.94;45.82;100882.14;103831;1285;62110;-82
2023/06/21 02:46:38;;;;;;;;;;;;;;;25.94;46.00;100881.80;103764;1285;62136;-82
2023/06/21 02:49:04;;;;;;;;;;;;;;;25.94;45.81;100886.48;103731;1285;62219;-82
2023/06/21 02:51:29;;;;;;;;;;;;;;;25.95;45.96;100883.03;103663;1290;62191;-82
2023/06/21 02:53:55;;;;;;;;;;;;;;;25.95;46.03;100887.70;103604;1285;62269;-82
2023/06/21 02:56:21;;;;;;;;;;;;;;;25.94;45.83;100881.59;103690;1285;62210;-82
2023/06/21 02:58:46;;;;;;;;;;;;;;;25.94;45.99;100883.42;103563;1289;62203;-82
2023/06/21 03:01:13;;;;;;;;;;;;;;;25.94;45.88;100884.30;103615;1285;62241;-82
2023/06/21 03:03:41;;;;;;;;;;;;;;;25.94;45.93;100885.05;103671;1285;62186;-82
2023/06/21 03:06:06;;;;;;;;;;;;;;;25.94;45.95;100883.66;103624;1290;62947;-82
2023/06/21 03:08:32;;;;;;;;;;;;;;;25.94;45.97;100880.36;103687;1285;63804;-82
2023/06/21 03:10:57;;;;;;;;;;;;;;;25.94;45.91;100882.35;103622;1285;63424;-82
2023/06/21 03:13:23;;;;;;;;;;;;;;;25.94;46.10;100882.52;103575;1285;62228;-82
2023/06/21 03:15:48;;;;;;;;;;;;;;;25.95;46.02;100889.52;103687;1285;67653;-81
2023/06/21 03:18:15;;;;;;;;;;;;;;;25.94;46.07;100890.65;103722;1286;62138;-81
2023/06/21 03:20:42;;;;;;;;;;;;;;;25.94;45.96;100894.58;103605;1285;62173;-81
2023/06/21 03:23:08;;;;;;;;;;;;;;;25.94;45.98;100897.11;103686;1285;63297;-82
2023/06/21 03:25:33;;;;;;;;;;;;;;;25.94;46.07;100899.63;103578;1285;63246;-81
2023/06/21 03:28:00;;;;;;;;;;;;;;;25.95;46.21;100901.42;103685;1289;62201;-82
2023/06/21 03:30:25;;;;;;;;;;;;;;;25.94;45.94;100903.45;103709;1285;62210;-82
2023/06/21 03:32:51;;;;;;;;;;;;;;;25.95;46.27;100900.88;103689;1285;62198;-82
2023/06/21 03:35:17;;;;;;;;;;;;;;;25.95;46.10;100905.92;103660;1285;62223;-82
2023/06/21 03:37:42;;;;;;;;;;;;;;;25.95;46.07;100902.83;103598;1285;68938;-81
2023/06/21 03:40:13;;;;;;;;;;;;;;;25.95;46.22;100908.77;103577;1285;62676;-81
2023/06/21 03:42:41;;;;;;;;;;;;;;;25.96;46.01;100908.03;103687;1285;62294;-81
2023/06/21 03:45:07;;;;;;;;;;;;;;;25.95;46.03;100906.98;103660;1290;64740;-81
2023/06/21 03:47:34;;;;;;;;;;;;;;;25.95;46.26;100905.35;103174;1293;62257;-82
2023/06/21 03:50:00;;;;;;;;;;;;;;;25.95;46.22;100908.42;103157;1290;62211;-82
2023/06/21 03:52:25;;;;;;;;;;;;;;;25.96;46.27;100911.47;103120;1291;62275;-82
2023/06/21 03:54:52;;;;;;;;;;;;;;;25.95;45.94;100913.50;103076;1296;63505;-82
2023/06/21 03:57:17;;;;;;;;;;;;;;;25.94;46.12;100912.80;103101;1293;63050;-82
2023/06/21 03:59:43;;;;;;;;;;;;;;;25.95;46.18;100915.30;103205;1291;62199;-82
2023/06/21 04:02:08;;;;;;;;;;;;;;;25.94;46.20;100920.01;103204;1291;62908;-82
2023/06/21 04:04:33;;;;;;;;;;;;;;;25.94;46.08;100919.50;103218;1291;62374;-82
2023/06/21 04:06:59;;;;;;;;;;;;;;;25.95;46.11;100918.70;103304;1293;62154;-82
2023/06/21 04:09:25;;;;;;;;;;;;;;;25.95;46.06;100919.98;103454;1291;63426;-81
2023/06/21 04:11:50;;;;;;;;;;;;;;;25.95;46.24;100920.87;103394;1290;62296;-81
2023/06/21 04:14:16;;;;;;;;;;;;;;;25.96;45.95;100919.77;103496;1289;62247;-81
2023/06/21 04:16:42;;;;;;;;;;;;;;;25.96;46.07;100923.52;103262;1290;62091;-82
2023/06/21 04:19:08;;;;;;;;;;;;;;;25.96;46.12;100926.95;103449;1291;62304;-82
2023/06/21 04:21:33;;;;;;;;;;;;;;;25.97;46.13;100925.80;103421;1291;62115;-82
2023/06/21 04:23:59;;;;;;;;;;;;;;;25.97;46.14;100928.13;103721;1290;62422;-82
2023/06/21 04:26:24;;;;;;;;;;;;;;;25.97;46.12;100928.82;103672;1285;62215;-82
2023/06/21 04:28:49;;;;;;;;;;;;;;;25.97;46.05;100931.36;103822;1285;62178;-81
2023/06/21 04:31:15;;;;;;;;;;;;;;;25.97;46.11;100932.47;103897;1285;63318;-81
2023/06/21 04:33:40;;;;;;;;;;;;;;;25.97;46.13;100933.75;104067;1285;62192;-81
2023/06/21 04:36:06;;;;;;;;;;;;;;;25.97;46.16;100936.02;103913;1285;62254;-81
2023/06/21 04:38:33;;;;;;;;;;;;;;;25.97;46.17;100936.05;103790;1283;62204;-81
2023/06/21 04:40:59;;;;;;;;;;;;;;;25.97;46.11;100936.96;103772;1288;62105;-82
2023/06/21 04:43:25;;;;;;;;;;;;;;;25.97;46.17;100936.39;103759;1286;62837;-81
2023/06/21 04:45:51;;;;;;;;;;;;;;;25.97;46.07;100938.69;103773;1284;62283;-81
2023/06/21 04:48:16;;;;;;;;;;;;;;;25.98;45.93;100940.30;103763;1290;62291;-82
2023/06/21 04:50:45;;;;;;;;;;;;;;;25.98;46.02;100940.43;103913;1285;62185;-81
2023/06/21 04:53:14;;;;;;;;;;;;;;;25.98;45.89;100943.30;104048;1285;62264;-81
2023/06/21 04:55:43;;;;;;;;;;;;;;;25.98;45.85;100950.52;104080;1284;67760;-82
2023/06/21 04:58:09;;;;;;;;;;;;;;;25.98;45.76;100952.20;104123;1285;62098;-81
2023/06/21 05:00:35;;;;;;;;;;;;;;;25.97;45.78;100953.13;104032;1285;64049;-81
2023/06/21 05:03:01;;;;;;;;;;;;;;;25.98;45.74;100952.73;104051;1285;62140;-81
2023/06/21 05:05:26;;;;;;;;;;;;;;;25.98;45.75;100953.05;104118;1285;62285;-81
2023/06/21 05:07:53;;;;;;;;;;;;;;;26.00;45.56;100954.56;104074;1284;62237;-81
2023/06/21 05:10:18;;;;;;;;;;;;;;;25.99;45.69;100955.70;104407;1285;61118;-81
2023/06/21 05:12:44;;;;;;;;;;;;;;;25.98;45.55;100954.53;104363;1288;60409;-83
2023/06/21 05:15:09;;;;;;;;;;;;;;;25.98;45.42;100956.49;104093;1285;62696;-81
2023/06/21 05:17:35;;;;;;;;;;;;;;;26.00;45.40;100955.82;104725;1288;62199;-82
2023/06/21 05:20:02;;;;;;;;;;;;;;;26.02;45.51;100956.16;104396;1289;62222;-82
2023/06/21 05:22:28;;;;;;;;;;;;;;;26.03;45.49;100955.33;104379;1285;62127;-81
2023/06/21 05:24:53;;;;;;;;;;;;;;;26.05;45.50;100956.11;103953;1285;62066;-82
2023/06/21 05:27:18;;;;;;;;;;;;;;;26.06;45.63;100956.20;104021;1287;62241;-81
2023/06/21 05:29:44;;;;;;;;;;;;;;;26.06;45.30;100954.86;104521;1291;62174;-81
2023/06/21 05:32:10;;;;;;;;;;;;;;;26.08;45.35;100957.09;104176;1291;62278;-81
2023/06/21 05:34:36;;;;;;;;;;;;;;;26.08;45.47;100957.39;104157;1285;62183;-81
2023/06/21 05:37:01;;;;;;;;;;;;;;;26.09;45.27;100958.04;103855;1290;62189;-81
2023/06/21 05:39:26;;;;;;;;;;;;;;;26.10;45.25;100957.58;103807;1287;61949;-81
2023/06/21 05:41:52;;;;;;;;;;;;;;;26.12;45.29;100958.38;103954;1291;62241;-81
2023/06/21 05:44:17;;;;;;;;;;;;;;;26.13;45.02;100962.54;103987;1284;62199;-81
2023/06/21 05:46:43;;;;;;;;;;;;;;;26.14;45.23;100963.20;104089;1286;62146;-81
2023/06/21 05:49:08;;;;;;;;;;;;;;;26.15;45.24;100968.00;103763;1291;64370;-81
2023/06/21 05:51:34;;;;;;;;;;;;;;;26.15;44.95;100967.79;103764;1285;62174;-82
2023/06/21 05:54:00;;;;;;;;;;;;;;;26.16;45.04;100967.54;103784;1285;62206;-82
2023/06/21 05:56:27;;;;;;;;;;;;;;;26.16;44.90;100966.26;103904;1284;62409;-82
2023/06/21 05:58:52;;;;;;;;;;;;;;;26.18;44.80;100968.28;103766;1285;62097;-82
2023/06/21 06:01:18;;;;;;;;;;;;;;;26.18;44.83;100965.34;104050;1289;65624;-81
2023/06/21 06:03:44;;;;;;;;;;;;;;;26.19;44.82;100962.92;103921;1285;62169;-82
2023/06/21 06:06:14;;;;;;;;;;;;;;;26.20;44.85;100961.95;103944;1285;62575;-81
2023/06/21 06:08:40;;;;;;;;;;;;;;;26.21;44.59;100964.04;103824;1286;62201;-82
2023/06/21 06:11:05;;;;;;;;;;;;;;;26.21;44.69;100960.90;103802;1291;62181;-82
2023/06/21 06:13:31;;;;;;;;;;;;;;;26.22;44.70;100960.85;103880;1285;62243;-82
2023/06/21 06:15:56;;;;;;;;;;;;;;;26.22;44.69;100961.16;103816;1286;63503;-82
2023/06/21 06:18:21;;;;;;;;;;;;;;;26.23;44.62;100956.80;104027;1288;62199;-82
2023/06/21 06:20:47;;;;;;;;;;;;;;;26.24;44.53;100957.27;103720;1286;63369;-82
2023/06/21 06:23:12;;;;;;;;;;;;;;;26.24;44.60;100953.42;104023;1291;62197;-82
2023/06/21 06:25:38;;;;;;;;;;;;;;;26.25;44.35;100952.27;103840;1285;63099;-82
2023/06/21 06:28:04;;;;;;;;;;;;;;;26.26;44.49;100950.94;103822;1291;62290;-82
2023/06/21 06:30:31;;;;;;;;;;;;;;;26.26;44.52;100949.09;104004;1288;63472;-81
2023/06/21 06:32:57;;;;;;;;;;;;;;;26.27;44.41;100948.86;103745;1285;62519;-81
2023/06/21 06:35:22;;;;;;;;;;;;;;;26.28;44.38;100946.79;104066;1285;63675;-81
2023/06/21 06:37:48;;;;;;;;;;;;;;;26.29;44.38;100950.92;104414;1284;62120;-82
2023/06/21 06:40:13;;;;;;;;;;;;;;;26.29;44.49;100946.88;103957;1285;62111;-82
2023/06/21 06:42:38;;;;;;;;;;;;;;;26.29;44.56;100947.80;103903;1288;62168;-82
2023/06/21 06:45:04;;;;;;;;;;;;;;;26.30;44.41;100948.80;103742;1285;64378;-81
2023/06/21 06:47:30;;;;;;;;;;;;;;;26.31;44.32;100948.02;103799;1290;62191;-81
2023/06/21 06:49:57;;;;;;;;;;;;;;;26.31;44.51;100944.93;103813;1285;67336;-81
2023/06/21 06:52:24;;;;;;;;;;;;;;;26.32;44.35;100947.39;103819;1288;62187;-81
2023/06/21 06:55:03;;;;;;;;;;;;;;;26.34;44.29;100944.77;102913;1295;599134;-81
2023/06/21 06:57:28;;;;;;;;;;;;;;;26.32;44.40;100945.30;103028;1299;60428;-82
2023/06/21 06:59:54;;;;;;;;;;;;;;;26.33;44.19;100942.94;102798;1297;59391;-82
2023/06/21 07:02:19;;;;;;;;;;;;;;;26.33;44.45;100949.64;102723;1298;59399;-82
2023/06/21 07:04:44;;;;;;;;;;;;;;;26.33;44.26;100950.15;102796;1297;59459;-83
2023/06/21 07:07:11;;;;;;;;;;;;;;;26.33;44.18;100947.96;102853;1295;60665;-83
2023/06/21 07:09:37;;;;;;;;;;;;;;;26.33;44.11;100947.39;102704;1294;604955;-83
2023/06/21 07:12:03;;;;;;;;;;;;;;;26.33;43.99;100951.55;103084;1293;59295;-83
2023/06/21 07:14:29;;;;;;;;;;;;;;;26.33;43.99;100947.23;103172;1293;59271;-83
2023/06/21 07:16:54;;;;;;;;;;;;;;;26.33;44.18;100951.18;103258;1293;59398;-83
2023/06/21 07:19:20;;;;;;;;;;;;;;;26.33;43.95;100948.46;103303;1294;59807;-83
2023/06/21 07:21:45;;;;;;;;;;;;;;;26.32;44.36;100944.45;103595;1291;59730;-83
2023/06/21 07:24:11;;;;;;;;;;;;;;;26.32;44.06;100947.90;103766;1295;59769;-83
2023/06/21 07:26:38;;;;;;;;;;;;;;;26.31;44.01;100941.88;103519;1292;59794;-82
2023/06/21 07:29:04;;;;;;;;;;;;;;;26.31;44.08;100945.80;103306;1295;64131;-83
2023/06/21 07:31:32;;;;;;;;;;;;;;;26.32;43.98;100940.52;103449;1292;59809;-80
2023/06/21 07:34:00;;;;;;;;;;;;;;;26.32;44.10;100937.21;103571;1294;60279;-81
2023/06/21 07:36:26;;;;;;;;;;;;;;;26.33;43.94;100944.20;103699;1295;59684;-81
2023/06/21 07:38:52;;;;;;;;;;;;;;;26.33;44.05;100943.84;103602;1296;59785;-81
2023/06/21 07:41:17;;;;;;;;;;;;;;;26.34;44.14;100944.11;103597;1294;59787;-81
2023/06/21 07:43:42;;;;;;;;;;;;;;;26.34;43.98;100942.70;103471;1296;60963;-81
2023/06/21 07:46:08;;;;;;;;;;;;;;;26.34;44.14;100946.25;103514;1294;59739;-81
2023/06/21 07:48:34;;;;;;;;;;;;;;;26.33;43.97;100949.02;103390;1299;60939;-82
2023/06/21 07:51:01;;;;;;;;;;;;;;;26.34;44.09;100946.80;103306;1296;64805;-82
2023/06/21 07:53:26;;;;;;;;;;;;;;;26.34;43.94;100949.14;103280;1295;59771;-82
2023/06/21 07:55:51;;;;;;;;;;;;;;;26.34;43.75;100947.52;103400;1296;59712;-81
2023/06/21 07:58:17;;;;;;;;;;;;;;;26.33;43.97;100947.45;103229;1293;60337;-81
2023/06/21 08:00:43;;;;;;;;;;;;;;;26.31;43.69;100952.27;103290;1293;59841;-81
2023/06/21 08:03:08;;;;;;;;;;;;;;;26.32;43.85;100955.31;103277;1295;63664;-81
2023/06/21 08:05:34;;;;;;;;;;;;;;;26.32;43.89;100949.18;103196;1293;60286;-82
2023/06/21 08:08:01;;;;;;;;;;;;;;;26.32;43.75;100947.33;103258;1294;59806;-81
2023/06/21 08:10:28;;;;;;;;;;;;;;;26.32;43.82;100946.58;103535;1292;59682;-81
2023/06/21 08:12:53;;;;;;;;;;;;;;;26.32;43.65;100950.00;103834;1295;59677;-81
2023/06/21 08:15:19;;;;;;;;;;;;;;;26.32;43.73;100951.08;103719;1300;60977;-81
2023/06/21 08:17:44;;;;;;;;;;;;;;;26.32;43.51;100949.66;103554;1298;60438;-81
2023/06/21 08:20:10;;;;;;;;;;;;;;;26.33;43.41;100951.97;103704;1294;59745;-82
2023/06/21 08:22:35;;;;;;;;;;;;;;;26.33;43.47;100950.86;104055;1296;60205;-81
2023/06/21 08:25:01;;;;;;;;;;;;;;;26.34;43.54;100948.59;104179;1294;59846;-81
2023/06/21 08:27:27;;;;;;;;;;;;;;;26.34;43.71;100950.19;103829;1298;59706;-81
2023/06/21 08:29:52;;;;;;;;;;;;;;;26.35;43.73;100949.92;103880;1294;59645;-81
2023/06/21 08:32:19;;;;;;;;;;;;;;;26.36;43.64;100946.05;103840;1296;59808;-82
2023/06/21 08:34:46;;;;;;;;;;;;;;;26.37;43.66;100950.27;103919;1292;59772;-81
2023/06/21 08:37:11;;;;;;;;;;;;;;;26.38;43.73;100954.89;104005;1293;60813;-81
2023/06/21 08:39:37;;;;;;;;;;;;;;;26.39;43.81;100953.38;103816;1294;59858;-81
2023/06/21 08:42:02;;;;;;;;;;;;;;;26.39;43.89;100951.19;103871;1296;59781;-81
2023/06/21 08:44:28;;;;;;;;;;;;;;;26.40;43.92;100954.20;103886;1294;59963;-81
2023/06/21 08:46:54;;;;;;;;;;;;;;;26.40;43.65;100955.27;104011;1293;60316;-81
2023/06/21 08:49:20;;;;;;;;;;;;;;;26.40;43.96;100950.73;103553;1292;73988;-81
2023/06/21 08:51:46;;;;;;;;;;;;;;;26.40;43.84;100954.00;103657;1293;59833;-82
2023/06/21 08:54:12;;;;;;;;;;;;;;;26.40;43.70;100951.99;103899;1291;60118;-82
2023/06/21 08:56:49;;;;;;;;;;;;;;;26.40;43.65;100950.03;103755;1300;59706;-81
2023/06/21 08:59:20;;;;;;;;;;;;;;;26.40;43.82;100946.05;103465;1298;64861;-81
2023/06/21 09:01:47;;;;;;;;;;;;;;;26.41;43.60;100946.89;103823;1293;64230;-82
2023/06/21 09:04:13;;;;;;;;;;;;;;;26.41;43.76;100949.23;103605;1293;60834;-83
2023/06/21 09:06:38;;;;;;;;;;;;;;;26.41;43.73;100944.17;103364;1293;59808;-81
2023/06/21 09:09:04;;;;;;;;;;;;;;;26.40;43.56;100939.52;103411;1292;61372;-82
2023/06/21 09:11:29;;;;;;;;;;;;;;;26.40;43.56;100939.35;103407;1292;59810;-81
2023/06/21 09:13:55;;;;;;;;;;;;;;;26.41;43.51;100931.73;103243;1299;60506;-82
2023/06/21 09:16:20;;;;;;;;;;;;;;;26.41;43.44;100936.98;103200;1295;60268;-82
2023/06/21 09:18:47;;;;;;;;;;;;;;;26.40;43.66;100934.29;103045;1297;59806;-81
2023/06/21 09:21:12;;;;;;;;;;;;;;;26.40;43.81;100932.21;103232;1299;59863;-82
2023/06/21 09:23:39;;;;;;;;;;;;;;;26.39;43.65;100934.96;103562;1297;59778;-82
2023/06/21 09:26:05;;;;;;;;;;;;;;;26.39;43.51;100930.14;103469;1298;59729;-82
2023/06/21 09:28:31;;;;;;;;;;;;;;;26.39;43.38;100933.70;103346;1298;59803;-82
2023/06/21 09:30:56;;;;;;;;;;;;;;;26.39;43.47;100933.51;103030;1296;60848;-82
2023/06/21 09:33:23;;;;;;;;;;;;;;;26.39;43.50;100931.36;103219;1295;60393;-82
2023/06/21 09:35:48;;;;;;;;;;;;;;;26.39;43.51;100926.86;103351;1292;64187;-82
2023/06/21 09:38:24;;;;;;;;;;;;;;;26.38;43.66;100925.86;103345;1296;59778;-82
2023/06/21 09:40:49;;;;;;;;;;;;;;;26.37;43.43;100926.45;103430;1291;59725;-82
2023/06/21 09:43:15;;;;;;;;;;;;;;;26.37;43.61;100929.88;103188;1295;61006;-82
2023/06/21 09:45:40;;;;;;;;;;;;;;;26.38;43.77;100930.05;103087;1297;59789;-82
2023/06/21 09:48:05;;;;;;;;;;;;;;;26.37;43.53;100928.30;103235;1294;60561;-82
2023/06/21 09:50:44;;;;;;;;;;;;;;;26.36;43.57;100935.04;103554;1289;60855;-81
2023/06/21 09:53:10;;;;;;;;;;;;;;;26.36;43.64;100930.04;103524;1297;60544;-81
2023/06/21 09:55:35;;;;;;;;;;;;;;;26.36;43.65;100929.14;103685;1291;59929;-81
2023/06/21 09:58:01;;;;;;;;;;;;;;;26.36;43.64;100930.04;103745;1293;59778;-82
2023/06/21 10:00:33;;;;;;;;;;;;;;;26.35;43.65;100933.30;103446;1290;59885;-81
2023/06/21 10:02:58;;;;;;;;;;;;;;;26.36;43.65;100923.71;103360;1293;59650;-81
2023/06/21 10:05:24;;;;;;;;;;;;;;;26.36;43.73;100916.48;103449;1293;59831;-82
2023/06/21 10:07:49;;;;;;;;;;;;;;;26.37;43.82;100915.66;103471;1297;59780;-81
2023/06/21 10:10:15;;;;;;;;;;;;;;;26.37;43.50;100911.56;103466;1295;60675;-81
2023/06/21 10:12:50;;;;;;;;;;;;;;;26.37;43.45;100907.20;103405;1292;60818;-82
2023/06/21 10:15:18;;;;;;;;;;;;;;;26.37;43.56;100906.63;103492;1295;59986;-81
2023/06/21 10:17:44;;;;;;;;;;;;;;;26.37;43.58;100898.91;103325;1293;64840;-82
2023/06/21 10:20:10;;;;;;;;;;;;;;;26.37;43.55;100896.55;103427;1289;65294;-82
2023/06/21 10:22:36;;;;;;;;;;;;;;;26.37;43.62;100899.25;103581;1291;60028;-82
2023/06/21 10:25:02;;;;;;;;;;;;;;;26.36;43.51;100894.98;103481;1291;59780;-82
2023/06/21 10:27:27;;;;;;;;;;;;;;;26.37;43.53;100899.79;103482;1292;59752;-82
2023/06/21 10:29:53;;;;;;;;;;;;;;;26.36;43.82;100900.77;103369;1292;60954;-81
2023/06/21 10:32:19;;;;;;;;;;;;;;;26.37;43.73;100901.95;103924;1290;59709;-81
2023/06/21 10:34:55;;;;;;;;;;;;;;;26.37;43.88;100906.43;103341;1295;59765;-81
2023/06/21 10:37:40;;;;;;;;;;;;;;;26.37;43.77;100897.62;103367;1294;60561;-81
2023/06/21 10:40:07;;;;;;;;;;;;;;;26.37;43.68;100893.23;103546;1291;63754;-81
2023/06/21 10:42:32;;;;;;;;;;;;;;;26.37;43.70;100885.71;104526;1290;65403;-81
2023/06/21 10:44:59;;;;;;;;;;;;;;;26.38;43.65;100881.51;103678;1291;59782;-81
2023/06/21 10:47:24;;;;;;;;;;;;;;;26.37;43.71;100882.64;103500;1291;60914;-81
2023/06/21 10:49:50;;;;;;;;;;;;;;;26.37;43.59;100882.06;103056;1296;60209;-82
2023/06/21 10:52:15;;;;;;;;;;;;;;;26.37;43.61;100881.16;103509;1295;59795;-82
2023/06/21 10:54:41;;;;;;;;;;;;;;;26.37;43.85;100882.98;103538;1294;59779;-82
2023/06/21 10:57:06;;;;;;;;;;;;;;;26.37;43.65;100886.23;103464;1290;59801;-82
2023/06/21 10:59:32;;;;;;;;;;;;;;;26.37;43.58;100883.70;103525;1291;60600;-82
2023/06/21 11:01:57;;;;;;;;;;;;;;;26.38;43.58;100882.77;103068;1292;60568;-82
2023/06/21 11:04:23;;;;;;;;;;;;;;;26.38;43.46;100883.50;103349;1291;60663;-82
2023/06/21 11:06:48;;;;;;;;;;;;;;;26.38;43.73;100883.66;103507;1291;60719;-82
2023/06/21 11:09:16;;;;;;;;;;;;;;;26.38;43.60;100882.75;103404;1294;60592;-82
2023/06/21 11:11:51;;;;;;;;;;;;;;;26.38;43.55;100884.38;103454;1291;62600;-82
2023/06/21 11:14:36;;;;;;;;;;;;;;;26.38;43.70;100875.34;103314;1291;64973;-82
2023/06/21 11:17:08;;;;;;;;;;;;;;;26.38;43.67;100873.36;103339;1294;65866;-82
2023/06/21 11:19:34;;;;;;;;;;;;;;;26.38;43.77;100870.80;103330;1291;60467;-82
2023/06/21 11:22:01;;;;;;;;;;;;;;;26.39;43.65;100873.11;103173;1291;60491;-82
2023/06/21 11:24:27;;;;;;;;;;;;;;;26.39;43.46;100875.42;103610;1294;60591;-82
2023/06/21 11:26:53;;;;;;;;;;;;;;;26.39;43.44;100874.50;103496;1291;60640;-81
2023/06/21 11:29:19;;;;;;;;;;;;;;;26.40;43.44;100874.09;103551;1291;60727;-81
2023/06/21 11:31:44;;;;;;;;;;;;;;;26.40;43.58;100872.95;103668;1296;60499;-81
2023/06/21 11:34:31;;;;;;;;;;;;;;;26.40;43.67;100873.15;103551;1291;60567;-81
2023/06/21 11:36:56;;;;;;;;;;;;;;;26.40;43.62;100869.17;103552;1295;65013;-81
2023/06/21 11:39:22;;;;;;;;;;;;;;;26.41;43.65;100871.23;103753;1295;60506;-81
2023/06/21 11:41:47;;;;;;;;;;;;;;;26.42;43.65;100872.82;103683;1295;60570;-81
2023/06/21 11:44:28;;;;;;;;;;;;;;;26.42;43.46;100872.25;103474;1292;61001;-81
2023/06/21 11:47:02;;;;;;;;;;;;;;;26.42;43.42;100867.34;103131;1296;66091;-82
2023/06/21 11:49:32;;;;;;;;;;;;;;;26.42;43.40;100865.15;103135;1294;60488;-81
2023/06/21 11:52:01;;;;;;;;;;;;;;;26.43;43.61;100865.11;103310;1291;60491;-81
2023/06/21 11:54:36;;;;;;;;;;;;;;;26.43;43.47;100867.32;103120;1297;63848;-81
2023/06/21 11:57:05;;;;;;;;;;;;;;;26.43;43.37;100869.31;103403;1293;64208;-82
2023/06/21 11:59:31;;;;;;;;;;;;;;;26.42;43.44;100867.37;103048;1295;61191;-81
2023/06/21 12:02:02;;;;;;;;;;;;;;;26.42;43.31;100868.61;103245;1291;60648;-81
2023/06/21 12:04:27;;;;;;;;;;;;;;;26.42;43.37;100867.19;103206;1295;66046;-81
2023/06/21 12:06:53;;;;;;;;;;;;;;;26.42;43.38;100865.57;103506;1291;62162;-82
2023/06/21 12:09:18;;;;;;;;;;;;;;;26.42;43.42;100866.11;103867;1295;60661;-82
2023/06/21 12:11:45;;;;;;;;;;;;;;;26.42;43.47;100864.48;103634;1295;60659;-82
2023/06/21 12:14:11;;;;;;;;;;;;;;;26.42;43.48;100863.95;103322;1296;61670;-81
2023/06/21 12:16:37;;;;;;;;;;;;;;;26.43;43.42;100862.23;103117;1291;61173;-81
2023/06/21 12:19:06;;;;;;;;;;;;;;;26.43;43.42;100866.58;103070;1291;60965;-81
2023/06/21 12:21:33;;;;;;;;;;;;;;;26.43;43.37;100857.88;103184;1291;60593;-81
2023/06/21 12:23:59;;;;;;;;;;;;;;;26.43;43.19;100860.18;103358;1295;61631;-81